sensor_id;sensor_type;location;lat;lon;timestamp;pressure;altitude;pressure_sealevel;temperature;humidity
38227;BME280;24026;49.446;8.576;2023-05-20T00:00:35;100740.72;;;18.70;40.82
38227;BME280;24026;49.446;8.576;2023-05-20T00:02:55;100737.75;;;18.72;40.78
38227;BME280;24026;49.446;8.576;2023-05-20T00:05:16;100735.06;;;18.72;40.53
38227;BME280;24026;49.446;8.576;2023-05-20T00:07:37;100735.84;;;18.72;40.88
38227;BME280;24026;49.446;8.576;2023-05-20T00:09:57;100739.66;;;18.71;40.80
38227;BME280;24026;49.446;8.576;2023-05-20T00:12:17;100732.44;;;18.66;40.71
38227;BME280;24026;49.446;8.576;2023-05-20T00:14:38;100729.22;;;18.64;40.96
38227;BME280;24026;49.446;8.576;2023-05-20T00:16:58;100721.16;;;18.64;40.95
38227;BME280;24026;49.446;8.576;2023-05-20T00:19:18;100721.44;;;18.63;40.97
38227;BME280;24026;49.446;8.576;2023-05-20T00:21:39;100728.19;;;18.60;40.79
38227;BME280;24026;49.446;8.576;2023-05-20T00:23:59;100726.00;;;18.62;40.72
38227;BME280;24026;49.446;8.576;2023-05-20T00:26:20;100725.50;;;18.60;41.24
38227;BME280;24026;49.446;8.576;2023-05-20T00:28:40;100722.28;;;18.58;41.15
38227;BME280;24026;49.446;8.576;2023-05-20T00:31:00;100716.41;;;18.56;41.15
38227;BME280;24026;49.446;8.576;2023-05-20T00:33:21;100724.47;;;18.56;40.90
38227;BME280;24026;49.446;8.576;2023-05-20T00:35:41;100726.91;;;18.52;41.14
38227;BME280;24026;49.446;8.576;2023-05-20T00:38:02;100720.44;;;18.54;41.18
38227;BME280;24026;49.446;8.576;2023-05-20T00:40:22;100716.16;;;18.52;41.47
38227;BME280;24026;49.446;8.576;2023-05-20T00:42:44;100725.91;;;18.48;41.21
38227;BME280;24026;49.446;8.576;2023-05-20T00:45:04;100723.50;;;18.47;41.47
38227;BME280;24026;49.446;8.576;2023-05-20T00:47:29;100723.22;;;18.48;41.11
38227;BME280;24026;49.446;8.576;2023-05-20T00:49:51;100718.91;;;18.47;41.23
38227;BME280;24026;49.446;8.576;2023-05-20T00:52:13;100723.78;;;18.45;41.52
38227;BME280;24026;49.446;8.576;2023-05-20T00:54:34;100724.28;;;18.47;41.61
38227;BME280;24026;49.446;8.576;2023-05-20T00:56:55;100713.53;;;18.47;41.36
38227;BME280;24026;49.446;8.576;2023-05-20T00:59:16;100716.81;;;18.44;41.24
38227;BME280;24026;49.446;8.576;2023-05-20T01:01:36;100719.50;;;18.44;41.58
38227;BME280;24026;49.446;8.576;2023-05-20T01:03:58;100720.84;;;18.42;41.09
38227;BME280;24026;49.446;8.576;2023-05-20T01:06:18;100721.13;;;18.40;41.80
38227;BME280;24026;49.446;8.576;2023-05-20T01:08:38;100717.09;;;18.43;41.94
38227;BME280;24026;49.446;8.576;2023-05-20T01:11:04;100718.97;;;18.42;41.78
38227;BME280;24026;49.446;8.576;2023-05-20T01:13:30;100720.13;;;18.36;41.74
38227;BME280;24026;49.446;8.576;2023-05-20T01:15:54;100718.22;;;18.37;41.89
38227;BME280;24026;49.446;8.576;2023-05-20T01:18:15;100722.00;;;18.36;41.84
38227;BME280;24026;49.446;8.576;2023-05-20T01:20:37;100716.88;;;18.34;42.06
38227;BME280;24026;49.446;8.576;2023-05-20T01:22:58;100711.78;;;18.32;42.04
38227;BME280;24026;49.446;8.576;2023-05-20T01:25:19;100719.59;;;18.34;41.76
38227;BME280;24026;49.446;8.576;2023-05-20T01:27:39;100714.78;;;18.31;41.76
38227;BME280;24026;49.446;8.576;2023-05-20T01:30:00;100715.59;;;18.31;42.17
38227;BME280;24026;49.446;8.576;2023-05-20T01:32:23;100710.25;;;18.26;42.06
38227;BME280;24026;49.446;8.576;2023-05-20T01:34:47;100709.97;;;18.28;42.06
38227;BME280;24026;49.446;8.576;2023-05-20T01:37:09;100712.66;;;18.28;42.20
38227;BME280;24026;49.446;8.576;2023-05-20T01:39:31;100716.94;;;18.29;41.86
38227;BME280;24026;49.446;8.576;2023-05-20T01:41:53;100720.47;;;18.29;42.26
38227;BME280;24026;49.446;8.576;2023-05-20T01:44:15;100722.59;;;18.27;42.07
38227;BME280;24026;49.446;8.576;2023-05-20T01:46:35;100715.94;;;18.25;42.14
38227;BME280;24026;49.446;8.576;2023-05-20T01:48:55;100714.31;;;18.24;42.22
38227;BME280;24026;49.446;8.576;2023-05-20T01:51:16;100705.97;;;18.25;42.23
38227;BME280;24026;49.446;8.576;2023-05-20T01:53:36;100700.34;;;18.22;42.45
38227;BME280;24026;49.446;8.576;2023-05-20T01:55:57;100707.09;;;18.19;42.57
38227;BME280;24026;49.446;8.576;2023-05-20T01:58:17;100700.06;;;18.23;42.34
38227;BME280;24026;49.446;8.576;2023-05-20T02:00:38;100697.66;;;18.22;42.29
38227;BME280;24026;49.446;8.576;2023-05-20T02:02:58;100694.75;;;18.18;42.40
38227;BME280;24026;49.446;8.576;2023-05-20T02:05:18;100697.94;;;18.20;42.65
38227;BME280;24026;49.446;8.576;2023-05-20T02:07:39;100694.13;;;18.26;42.20
38227;BME280;24026;49.446;8.576;2023-05-20T02:09:59;100697.09;;;18.25;42.40
38227;BME280;24026;49.446;8.576;2023-05-20T02:12:20;100698.72;;;18.21;42.67
38227;BME280;24026;49.446;8.576;2023-05-20T02:14:41;100686.38;;;18.20;42.54
38227;BME280;24026;49.446;8.576;2023-05-20T02:17:02;100696.88;;;18.21;42.61
38227;BME280;24026;49.446;8.576;2023-05-20T02:19:22;100690.72;;;18.15;42.51
38227;BME280;24026;49.446;8.576;2023-05-20T02:21:42;100687.69;;;18.22;42.44
38227;BME280;24026;49.446;8.576;2023-05-20T02:24:04;100687.47;;;18.19;42.67
38227;BME280;24026;49.446;8.576;2023-05-20T02:26:25;100680.78;;;18.16;42.74
38227;BME280;24026;49.446;8.576;2023-05-20T02:28:46;100693.19;;;18.12;42.69
38227;BME280;24026;49.446;8.576;2023-05-20T02:31:09;100688.03;;;18.15;42.36
38227;BME280;24026;49.446;8.576;2023-05-20T02:33:30;100681.06;;;18.14;42.88
38227;BME280;24026;49.446;8.576;2023-05-20T02:35:50;100681.34;;;18.13;42.96
38227;BME280;24026;49.446;8.576;2023-05-20T02:38:11;100677.56;;;18.14;42.82
38227;BME280;24026;49.446;8.576;2023-05-20T02:40:32;100674.34;;;18.12;42.64
38227;BME280;24026;49.446;8.576;2023-05-20T02:42:52;100674.63;;;18.10;42.88
38227;BME280;24026;49.446;8.576;2023-05-20T02:45:12;100674.91;;;18.09;42.75
38227;BME280;24026;49.446;8.576;2023-05-20T02:47:33;100678.44;;;18.09;43.00
38227;BME280;24026;49.446;8.576;2023-05-20T02:49:53;100674.91;;;18.09;42.93
38227;BME280;24026;49.446;8.576;2023-05-20T02:52:14;100666.84;;;18.09;43.03
38227;BME280;24026;49.446;8.576;2023-05-20T02:54:35;100667.06;;;18.12;42.68
38227;BME280;24026;49.446;8.576;2023-05-20T02:56:56;100672.47;;;18.12;42.72
38227;BME280;24026;49.446;8.576;2023-05-20T02:59:16;100666.56;;;18.10;42.78
38227;BME280;24026;49.446;8.576;2023-05-20T03:01:36;100665.50;;;18.11;43.03
38227;BME280;24026;49.446;8.576;2023-05-20T03:03:57;100664.69;;;18.11;42.88
38227;BME280;24026;49.446;8.576;2023-05-20T03:06:17;100660.97;;;18.07;43.10
38227;BME280;24026;49.446;8.576;2023-05-20T03:08:37;100661.47;;;18.09;42.89
38227;BME280;24026;49.446;8.576;2023-05-20T03:10:59;100666.34;;;18.07;42.90
38227;BME280;24026;49.446;8.576;2023-05-20T03:13:19;100667.41;;;18.06;42.93
38227;BME280;24026;49.446;8.576;2023-05-20T03:15:41;100659.13;;;18.02;43.30
38227;BME280;24026;49.446;8.576;2023-05-20T03:18:01;100662.34;;;18.04;43.09
38227;BME280;24026;49.446;8.576;2023-05-20T03:20:22;100661.31;;;18.00;43.08
38227;BME280;24026;49.446;8.576;2023-05-20T03:22:43;100662.69;;;17.98;43.52
38227;BME280;24026;49.446;8.576;2023-05-20T03:25:04;100669.66;;;17.99;43.16
38227;BME280;24026;49.446;8.576;2023-05-20T03:27:25;100662.69;;;17.98;43.11
38227;BME280;24026;49.446;8.576;2023-05-20T03:29:45;100659.69;;;17.99;43.17
38227;BME280;24026;49.446;8.576;2023-05-20T03:32:07;100665.88;;;18.00;43.36
38227;BME280;24026;49.446;8.576;2023-05-20T03:34:27;100666.44;;;17.96;43.51
38227;BME280;24026;49.446;8.576;2023-05-20T03:36:50;100669.88;;;18.02;43.39
38227;BME280;24026;49.446;8.576;2023-05-20T03:39:10;100667.25;;;17.97;43.21
38227;BME280;24026;49.446;8.576;2023-05-20T03:41:31;100666.97;;;17.99;43.32
38227;BME280;24026;49.446;8.576;2023-05-20T03:43:52;100671.81;;;17.96;43.26
38227;BME280;24026;49.446;8.576;2023-05-20T03:46:12;100676.91;;;17.98;43.40
38227;BME280;24026;49.446;8.576;2023-05-20T03:48:32;100675.81;;;17.99;43.50
38227;BME280;24026;49.446;8.576;2023-05-20T03:50:53;100669.41;;;17.95;43.51
38227;BME280;24026;49.446;8.576;2023-05-20T03:53:13;100684.75;;;17.94;43.48
38227;BME280;24026;49.446;8.576;2023-05-20T03:55:34;100681.03;;;17.90;43.43
38227;BME280;24026;49.446;8.576;2023-05-20T03:57:54;100679.16;;;17.91;43.50
38227;BME280;24026;49.446;8.576;2023-05-20T04:00:14;100675.03;;;17.99;43.47
38227;BME280;24026;49.446;8.576;2023-05-20T04:02:36;100680.91;;;18.01;43.42
38227;BME280;24026;49.446;8.576;2023-05-20T04:04:57;100674.00;;;17.94;43.55
38227;BME280;24026;49.446;8.576;2023-05-20T04:07:20;100678.81;;;17.98;43.51
38227;BME280;24026;49.446;8.576;2023-05-20T04:09:40;100677.50;;;17.95;43.70
38227;BME280;24026;49.446;8.576;2023-05-20T04:12:01;100677.25;;;17.91;43.78
38227;BME280;24026;49.446;8.576;2023-05-20T04:14:22;100678.56;;;17.94;43.50
38227;BME280;24026;49.446;8.576;2023-05-20T04:16:43;100679.91;;;17.96;43.49
38227;BME280;24026;49.446;8.576;2023-05-20T04:19:04;100683.59;;;18.01;43.31
38227;BME280;24026;49.446;8.576;2023-05-20T04:21:25;100680.69;;;17.97;43.66
38227;BME280;24026;49.446;8.576;2023-05-20T04:23:45;100677.25;;;17.91;43.77
38227;BME280;24026;49.446;8.576;2023-05-20T04:26:05;100675.59;;;17.95;43.54
38227;BME280;24026;49.446;8.576;2023-05-20T04:28:26;100679.16;;;17.91;43.58
38227;BME280;24026;49.446;8.576;2023-05-20T04:30:47;100678.28;;;17.95;43.49
38227;BME280;24026;49.446;8.576;2023-05-20T04:33:07;100677.53;;;17.90;43.47
38227;BME280;24026;49.446;8.576;2023-05-20T04:35:28;100676.97;;;17.93;43.76
38227;BME280;24026;49.446;8.576;2023-05-20T04:37:48;100681.78;;;17.96;43.47
38227;BME280;24026;49.446;8.576;2023-05-20T04:40:10;100676.97;;;17.93;43.85
38227;BME280;24026;49.446;8.576;2023-05-20T04:42:32;100672.91;;;17.95;43.55
38227;BME280;24026;49.446;8.576;2023-05-20T04:44:52;100683.38;;;17.97;43.80
38227;BME280;24026;49.446;8.576;2023-05-20T04:47:14;100679.63;;;17.98;43.47
38227;BME280;24026;49.446;8.576;2023-05-20T04:49:34;100682.03;;;18.00;43.49
38227;BME280;24026;49.446;8.576;2023-05-20T04:51:54;100674.56;;;17.91;43.48
38227;BME280;24026;49.446;8.576;2023-05-20T04:54:15;100676.47;;;17.91;43.86
38227;BME280;24026;49.446;8.576;2023-05-20T04:56:37;100666.22;;;17.93;43.60
38227;BME280;24026;49.446;8.576;2023-05-20T04:58:57;100664.56;;;17.97;43.92
38227;BME280;24026;49.446;8.576;2023-05-20T05:01:18;100678.22;;;18.01;43.64
38227;BME280;24026;49.446;8.576;2023-05-20T05:03:38;100668.56;;;18.00;43.72
38227;BME280;24026;49.446;8.576;2023-05-20T05:05:59;100680.41;;;17.99;43.91
38227;BME280;24026;49.446;8.576;2023-05-20T05:08:19;100663.84;;;17.86;43.87
38227;BME280;24026;49.446;8.576;2023-05-20T05:10:40;100663.25;;;17.94;43.47
38227;BME280;24026;49.446;8.576;2023-05-20T05:13:00;100668.63;;;17.94;43.63
38227;BME280;24026;49.446;8.576;2023-05-20T05:15:21;100659.22;;;17.92;43.89
38227;BME280;24026;49.446;8.576;2023-05-20T05:17:41;100666.22;;;17.93;43.69
38227;BME280;24026;49.446;8.576;2023-05-20T05:20:02;100655.75;;;17.91;43.92
38227;BME280;24026;49.446;8.576;2023-05-20T05:22:22;100661.06;;;17.96;43.73
38227;BME280;24026;49.446;8.576;2023-05-20T05:24:42;100662.44;;;17.94;43.76
38227;BME280;24026;49.446;8.576;2023-05-20T05:27:03;100657.31;;;17.98;43.99
38227;BME280;24026;49.446;8.576;2023-05-20T05:29:23;100651.69;;;17.94;43.98
38227;BME280;24026;49.446;8.576;2023-05-20T05:31:44;100647.13;;;17.94;43.69
38227;BME280;24026;49.446;8.576;2023-05-20T05:34:04;100649.81;;;17.94;43.84
38227;BME280;24026;49.446;8.576;2023-05-20T05:36:25;100648.94;;;17.99;43.78
38227;BME280;24026;49.446;8.576;2023-05-20T05:38:45;100649.75;;;18.00;43.91
38227;BME280;24026;49.446;8.576;2023-05-20T05:41:05;100643.03;;;17.97;43.69
38227;BME280;24026;49.446;8.576;2023-05-20T05:43:26;100633.63;;;18.00;43.72
38227;BME280;24026;49.446;8.576;2023-05-20T05:45:46;100624.97;;;18.03;43.84
38227;BME280;24026;49.446;8.576;2023-05-20T05:48:07;100624.50;;;17.95;43.91
38227;BME280;24026;49.446;8.576;2023-05-20T05:50:27;100636.59;;;17.98;43.97
38227;BME280;24026;49.446;8.576;2023-05-20T05:52:48;100631.16;;;18.03;43.70
38227;BME280;24026;49.446;8.576;2023-05-20T05:55:09;100631.16;;;18.03;43.77
38227;BME280;24026;49.446;8.576;2023-05-20T05:57:30;100629.75;;;18.06;43.67
38227;BME280;24026;49.446;8.576;2023-05-20T05:59:50;100625.50;;;18.05;44.04
38227;BME280;24026;49.446;8.576;2023-05-20T06:02:10;100633.28;;;18.06;43.73
38227;BME280;24026;49.446;8.576;2023-05-20T06:04:33;100627.84;;;18.11;43.46
38227;BME280;24026;49.446;8.576;2023-05-20T06:06:53;100625.09;;;18.17;43.78
38227;BME280;24026;49.446;8.576;2023-05-20T06:09:14;100629.97;;;18.14;43.48
38227;BME280;24026;49.446;8.576;2023-05-20T06:11:34;100625.66;;;18.13;43.38
38227;BME280;24026;49.446;8.576;2023-05-20T06:13:55;100629.97;;;18.14;43.65
38227;BME280;24026;49.446;8.576;2023-05-20T06:16:15;100624.31;;;18.16;43.80
38227;BME280;24026;49.446;8.576;2023-05-20T06:18:36;100633.97;;;18.17;43.91
38227;BME280;24026;49.446;8.576;2023-05-20T06:20:56;100635.34;;;18.14;43.69
38227;BME280;24026;49.446;8.576;2023-05-20T06:23:17;100633.16;;;18.17;43.93
38227;BME280;24026;49.446;8.576;2023-05-20T06:25:37;100635.28;;;18.20;43.56
38227;BME280;24026;49.446;8.576;2023-05-20T06:27:58;100637.47;;;18.18;43.95
38227;BME280;24026;49.446;8.576;2023-05-20T06:30:18;100637.97;;;18.20;43.64
38227;BME280;24026;49.446;8.576;2023-05-20T06:32:39;100636.59;;;18.22;43.79
38227;BME280;24026;49.446;8.576;2023-05-20T06:34:59;100629.84;;;18.25;43.32
38227;BME280;24026;49.446;8.576;2023-05-20T06:37:20;100624.69;;;18.28;43.42
38227;BME280;24026;49.446;8.576;2023-05-20T06:39:43;100623.91;;;18.28;43.77
38227;BME280;24026;49.446;8.576;2023-05-20T06:42:04;100614.72;;;18.29;43.92
38227;BME280;24026;49.446;8.576;2023-05-20T06:44:24;100623.06;;;18.27;43.48
38227;BME280;24026;49.446;8.576;2023-05-20T06:46:45;100624.41;;;18.30;43.84
38227;BME280;24026;49.446;8.576;2023-05-20T06:49:05;100621.34;;;18.37;43.57
38227;BME280;24026;49.446;8.576;2023-05-20T06:51:26;100616.03;;;18.31;43.84
38227;BME280;24026;49.446;8.576;2023-05-20T06:53:47;100618.66;;;18.37;43.17
38227;BME280;24026;49.446;8.576;2023-05-20T06:56:07;100616.50;;;18.39;43.49
38227;BME280;24026;49.446;8.576;2023-05-20T06:58:28;100621.06;;;18.38;43.77
38227;BME280;24026;49.446;8.576;2023-05-20T07:00:48;100617.25;;;18.44;43.71
38227;BME280;24026;49.446;8.576;2023-05-20T07:03:08;100612.94;;;18.43;43.60
38227;BME280;24026;49.446;8.576;2023-05-20T07:05:30;100608.84;;;18.46;43.23
38227;BME280;24026;49.446;8.576;2023-05-20T07:07:51;100603.72;;;18.49;43.40
38227;BME280;24026;49.446;8.576;2023-05-20T07:10:11;100606.13;;;18.51;43.28
38227;BME280;24026;49.446;8.576;2023-05-20T07:12:32;100604.22;;;18.51;43.44
38227;BME280;24026;49.446;8.576;2023-05-20T07:14:52;100597.97;;;18.56;43.11
38227;BME280;24026;49.446;8.576;2023-05-20T07:17:12;100600.59;;;18.61;42.98
38227;BME280;24026;49.446;8.576;2023-05-20T07:19:33;100601.09;;;18.63;43.07
38227;BME280;24026;49.446;8.576;2023-05-20T07:21:53;100596.22;;;18.65;43.41
38227;BME280;24026;49.446;8.576;2023-05-20T07:24:15;100593.09;;;18.77;42.96
38227;BME280;24026;49.446;8.576;2023-05-20T07:26:35;100587.38;;;18.84;43.29
38227;BME280;24026;49.446;8.576;2023-05-20T07:28:56;100580.84;;;18.90;43.06
38227;BME280;24026;49.446;8.576;2023-05-20T07:31:16;100582.38;;;18.96;43.11
38227;BME280;24026;49.446;8.576;2023-05-20T07:33:37;100580.38;;;19.02;42.57
38227;BME280;24026;49.446;8.576;2023-05-20T07:35:57;100574.41;;;19.05;42.68
38227;BME280;24026;49.446;8.576;2023-05-20T07:38:18;100573.81;;;19.08;42.85
38227;BME280;24026;49.446;8.576;2023-05-20T07:40:39;100581.31;;;19.11;42.76
38227;BME280;24026;49.446;8.576;2023-05-20T07:43:00;100584.53;;;19.13;42.89
38227;BME280;24026;49.446;8.576;2023-05-20T07:45:20;100575.56;;;19.18;42.94
38227;BME280;24026;49.446;8.576;2023-05-20T07:47:41;100573.38;;;19.20;42.88
38227;BME280;24026;49.446;8.576;2023-05-20T07:50:01;100575.78;;;19.21;42.54
38227;BME280;24026;49.446;8.576;2023-05-20T07:52:22;100568.97;;;19.24;42.84
38227;BME280;24026;49.446;8.576;2023-05-20T07:54:42;100570.28;;;19.27;42.67
38227;BME280;24026;49.446;8.576;2023-05-20T07:57:03;100565.41;;;19.29;42.89
38227;BME280;24026;49.446;8.576;2023-05-20T07:59:23;100564.03;;;19.31;42.88
38227;BME280;24026;49.446;8.576;2023-05-20T08:01:44;100566.09;;;19.34;42.58
38227;BME280;24026;49.446;8.576;2023-05-20T08:04:04;100565.50;;;19.37;42.82
38227;BME280;24026;49.446;8.576;2023-05-20T08:06:25;100561.72;;;19.38;42.60
38227;BME280;24026;49.446;8.576;2023-05-20T08:08:46;100559.25;;;19.42;42.92
38227;BME280;24026;49.446;8.576;2023-05-20T08:11:06;100566.75;;;19.45;42.70
38227;BME280;24026;49.446;8.576;2023-05-20T08:13:27;100557.25;;;19.48;42.35
38227;BME280;24026;49.446;8.576;2023-05-20T08:15:47;100561.56;;;19.49;42.87
38227;BME280;24026;49.446;8.576;2023-05-20T08:18:07;100558.25;;;19.52;42.63
38227;BME280;24026;49.446;8.576;2023-05-20T08:20:28;100552.28;;;19.55;42.61
38227;BME280;24026;49.446;8.576;2023-05-20T08:22:48;100554.41;;;19.58;42.78
38227;BME280;24026;49.446;8.576;2023-05-20T08:25:09;100561.84;;;19.61;42.53
38227;BME280;24026;49.446;8.576;2023-05-20T08:27:30;100552.69;;;19.62;42.70
38227;BME280;24026;49.446;8.576;2023-05-20T08:29:52;100550.47;;;19.64;42.45
38227;BME280;24026;49.446;8.576;2023-05-20T08:32:12;100552.28;;;19.69;42.46
38227;BME280;24026;49.446;8.576;2023-05-20T08:34:33;100556.31;;;19.71;42.81
38227;BME280;24026;49.446;8.576;2023-05-20T08:36:53;100562.72;;;19.75;42.67
38227;BME280;24026;49.446;8.576;2023-05-20T08:39:13;100555.41;;;19.76;42.77
38227;BME280;24026;49.446;8.576;2023-05-20T08:41:34;100555.59;;;19.79;42.39
38227;BME280;24026;49.446;8.576;2023-05-20T08:43:55;100553.13;;;19.83;42.61
38227;BME280;24026;49.446;8.576;2023-05-20T08:46:17;100539.03;;;19.86;42.69
38227;BME280;24026;49.446;8.576;2023-05-20T08:48:38;100547.66;;;19.88;42.27
38227;BME280;24026;49.446;8.576;2023-05-20T08:51:00;100530.03;;;19.91;42.14
38227;BME280;24026;49.446;8.576;2023-05-20T08:53:22;100531.34;;;19.93;42.48
38227;BME280;24026;49.446;8.576;2023-05-20T08:55:45;100521.84;;;19.96;42.15
38227;BME280;24026;49.446;8.576;2023-05-20T08:58:08;100523.16;;;19.98;42.65
38227;BME280;24026;49.446;8.576;2023-05-20T09:00:29;100513.66;;;20.01;42.21
38227;BME280;24026;49.446;8.576;2023-05-20T09:02:51;100513.88;;;20.05;42.36
38227;BME280;24026;49.446;8.576;2023-05-20T09:05:13;100512.75;;;20.06;42.29
38227;BME280;24026;49.446;8.576;2023-05-20T09:07:34;100505.97;;;20.08;42.34
38227;BME280;24026;49.446;8.576;2023-05-20T09:09:56;100511.56;;;20.12;42.43
38227;BME280;24026;49.446;8.576;2023-05-20T09:12:19;100516.06;;;20.16;42.54
38227;BME280;24026;49.446;8.576;2023-05-20T09:14:41;100515.75;;;20.18;42.54
38227;BME280;24026;49.446;8.576;2023-05-20T09:17:04;100506.53;;;20.19;41.99
38227;BME280;24026;49.446;8.576;2023-05-20T09:19:25;100506.72;;;20.23;42.31
38227;BME280;24026;49.446;8.576;2023-05-20T09:21:47;100505.31;;;20.25;42.05
38227;BME280;24026;49.446;8.576;2023-05-20T09:24:07;100502.31;;;20.27;42.41
38227;BME280;24026;49.446;8.576;2023-05-20T09:26:28;100500.91;;;20.29;41.94
38227;BME280;24026;49.446;8.576;2023-05-20T09:28:49;100507.31;;;20.33;41.99
38227;BME280;24026;49.446;8.576;2023-05-20T09:31:12;100508.88;;;20.34;41.97
38227;BME280;24026;49.446;8.576;2023-05-20T09:33:33;100496.69;;;20.37;41.93
38227;BME280;24026;49.446;8.576;2023-05-20T09:36:01;100495.91;;;20.36;42.18
38227;BME280;24026;49.446;8.576;2023-05-20T09:38:22;100494.97;;;20.41;41.97
38227;BME280;24026;49.446;8.576;2023-05-20T09:40:44;100485.47;;;20.44;41.79
38227;BME280;24026;49.446;8.576;2023-05-20T09:43:06;100492.16;;;20.46;42.08
38227;BME280;24026;49.446;8.576;2023-05-20T09:45:27;100496.94;;;20.49;41.86
38227;BME280;24026;49.446;8.576;2023-05-20T09:47:50;100493.34;;;20.54;41.78
38227;BME280;24026;49.446;8.576;2023-05-20T09:50:13;100493.03;;;20.55;42.18
38227;BME280;24026;49.446;8.576;2023-05-20T09:52:35;100497.03;;;20.58;41.73
38227;BME280;24026;49.446;8.576;2023-05-20T09:54:57;100499.41;;;20.60;42.13
38227;BME280;24026;49.446;8.576;2023-05-20T09:57:18;100496.13;;;20.63;41.67
38227;BME280;24026;49.446;8.576;2023-05-20T09:59:39;100493.59;;;20.66;41.58
38227;BME280;24026;49.446;8.576;2023-05-20T10:02:00;100487.59;;;20.69;42.02
38227;BME280;24026;49.446;8.576;2023-05-20T10:04:22;100480.81;;;20.72;41.94
38227;BME280;24026;49.446;8.576;2023-05-20T10:15:27;100481.47;;;20.78;41.81
38227;BME280;24026;49.446;8.576;2023-05-20T10:20:20;100479.44;;;20.83;41.79
38227;BME280;24026;49.446;8.576;2023-05-20T10:22:41;100479.94;;;20.85;42.16
38227;BME280;24026;49.446;8.576;2023-05-20T10:25:05;100476.94;;;20.87;42.17
38227;BME280;24026;49.446;8.576;2023-05-20T10:27:26;100469.00;;;20.90;42.29
38227;BME280;24026;49.446;8.576;2023-05-20T10:29:54;100464.69;;;20.89;42.04
38227;BME280;24026;49.446;8.576;2023-05-20T10:34:48;100455.97;;;20.92;41.91
38227;BME280;24026;49.446;8.576;2023-05-20T10:37:20;100447.88;;;20.92;41.98
38227;BME280;24026;49.446;8.576;2023-05-20T10:39:42;100447.44;;;20.99;41.73
38227;BME280;24026;49.446;8.576;2023-05-20T10:42:08;100442.34;;;20.98;41.85
38227;BME280;24026;49.446;8.576;2023-05-20T10:44:39;100439.63;;;20.98;42.03
38227;BME280;24026;49.446;8.576;2023-05-20T10:47:03;100441.72;;;21.01;42.09
38227;BME280;24026;49.446;8.576;2023-05-20T10:49:23;100448.44;;;21.03;41.86
38227;BME280;24026;49.446;8.576;2023-05-20T10:51:45;100455.09;;;21.06;41.97
38227;BME280;24026;49.446;8.576;2023-05-20T10:54:08;100443.19;;;21.07;41.97
38227;BME280;24026;49.446;8.576;2023-05-20T10:56:28;100440.50;;;21.07;41.96
38227;BME280;24026;49.446;8.576;2023-05-20T10:58:50;100440.19;;;21.08;42.26
38227;BME280;24026;49.446;8.576;2023-05-20T11:01:11;100431.78;;;21.10;42.10
38227;BME280;24026;49.446;8.576;2023-05-20T11:03:34;100432.72;;;21.14;41.89
38227;BME280;24026;49.446;8.576;2023-05-20T11:05:54;100440.84;;;21.14;42.25
38227;BME280;24026;49.446;8.576;2023-05-20T11:08:15;100432.72;;;21.14;41.59
38227;BME280;24026;49.446;8.576;2023-05-20T11:10:35;100435.13;;;21.16;41.91
38227;BME280;24026;49.446;8.576;2023-05-20T11:12:56;100441.00;;;21.18;42.10
38227;BME280;24026;49.446;8.576;2023-05-20T11:15:17;100433.22;;;21.16;41.97
38227;BME280;24026;49.446;8.576;2023-05-20T11:17:50;100436.03;;;21.11;42.27
38227;BME280;24026;49.446;8.576;2023-05-20T11:20:13;100428.63;;;21.17;41.98
38227;BME280;24026;49.446;8.576;2023-05-20T11:22:33;100425.09;;;21.16;42.05
38227;BME280;24026;49.446;8.576;2023-05-20T11:24:54;100430.19;;;21.18;41.96
38227;BME280;24026;49.446;8.576;2023-05-20T11:27:14;100428.78;;;21.20;42.16
38227;BME280;24026;49.446;8.576;2023-05-20T11:29:34;100423.38;;;21.20;42.32
38227;BME280;24026;49.446;8.576;2023-05-20T11:31:55;100428.47;;;21.22;41.94
38227;BME280;24026;49.446;8.576;2023-05-20T11:34:18;100426.88;;;21.21;42.25
38227;BME280;24026;49.446;8.576;2023-05-20T11:36:43;100426.09;;;21.20;42.13
38227;BME280;24026;49.446;8.576;2023-05-20T11:39:03;100429.25;;;21.22;42.26
38227;BME280;24026;49.446;8.576;2023-05-20T11:41:27;100430.88;;;21.23;42.32
38227;BME280;24026;49.446;8.576;2023-05-20T11:43:59;100419.06;;;21.19;42.35
38227;BME280;24026;49.446;8.576;2023-05-20T11:46:20;100416.22;;;21.24;42.16
38227;BME280;24026;49.446;8.576;2023-05-20T11:48:50;100412.56;;;21.20;42.48
38227;BME280;24026;49.446;8.576;2023-05-20T11:51:12;100417.03;;;21.25;42.30
38227;BME280;24026;49.446;8.576;2023-05-20T11:53:32;100408.13;;;21.24;42.61
38227;BME280;24026;49.446;8.576;2023-05-20T11:55:55;100407.34;;;21.24;42.18
38227;BME280;24026;49.446;8.576;2023-05-20T11:58:18;100408.91;;;21.25;42.29
38227;BME280;24026;49.446;8.576;2023-05-20T12:00:38;100403.50;;;21.25;42.07
38227;BME280;24026;49.446;8.576;2023-05-20T12:02:59;100406.22;;;21.25;42.77
38227;BME280;24026;49.446;8.576;2023-05-20T12:05:19;100404.31;;;21.25;42.67
38227;BME280;24026;49.446;8.576;2023-05-20T12:07:40;100397.78;;;21.26;42.27
38227;BME280;24026;49.446;8.576;2023-05-20T12:10:02;100402.09;;;21.27;42.63
38227;BME280;24026;49.446;8.576;2023-05-20T12:12:22;100394.00;;;21.27;42.44
38227;BME280;24026;49.446;8.576;2023-05-20T12:14:44;100394.94;;;21.32;42.39
38227;BME280;24026;49.446;8.576;2023-05-20T12:17:06;100394.31;;;21.35;42.64
38227;BME280;24026;49.446;8.576;2023-05-20T12:19:26;100390.22;;;21.37;42.60
38227;BME280;24026;49.446;8.576;2023-05-20T12:21:46;100391.31;;;21.36;42.39
38227;BME280;24026;49.446;8.576;2023-05-20T12:24:07;100400.53;;;21.35;42.49
38227;BME280;24026;49.446;8.576;2023-05-20T12:26:28;100395.94;;;21.36;42.49
38227;BME280;24026;49.446;8.576;2023-05-20T12:28:49;100392.44;;;21.35;42.50
38227;BME280;24026;49.446;8.576;2023-05-20T12:31:09;100399.72;;;21.35;42.38